sensor_id;sensor_type;location;lat;lon;timestamp;temperature;humidity
13600;DHT22;6871;51.34740610;4.31323160;2023-05-10T00:04:52;18.20;92.00
13600;DHT22;6871;51.34740610;4.31323160;2023-05-10T00:07:29;18.20;91.90
13600;DHT22;6871;51.34740610;4.31323160;2023-05-10T00:10:02;18.20;91.80
13600;DHT22;6871;51.34740610;4.31323160;2023-05-10T00:12:44;18.20;91.80
13600;DHT22;6871;51.34740610;4.31323160;2023-05-10T00:15:15;18.20;91.80
13600;DHT22;6871;51.34740610;4.31323160;2023-05-10T00:17:45;18.20;91.90
13600;DHT22;6871;51.34740610;4.31323160;2023-05-10T00:23:46;18.20;91.90
13600;DHT22;6871;51.34740610;4.31323160;2023-05-10T00:32:40;18.20;91.90
13600;DHT22;6871;51.34740610;4.31323160;2023-05-10T00:35:10;18.10;91.90
13600;DHT22;6871;51.34740610;4.31323160;2023-05-10T00:37:58;18.20;92.00
13600;DHT22;6871;51.34740610;4.31323160;2023-05-10T00:43:37;18.20;91.80
13600;DHT22;6871;51.34740610;4.31323160;2023-05-10T07:04:52;17.70;91.50
13600;DHT22;6871;51.34740610;4.31323160;2023-05-10T13:19:50;19.00;90.70
13600;DHT22;6871;51.34740610;4.31323160;2023-05-10T13:38:12;18.80;90.80
13600;DHT22;6871;51.34740610;4.31323160;2023-05-10T13:44:43;18.90;90.90
13600;DHT22;6871;51.34740610;4.31323160;2023-05-10T13:50:38;19.00;90.90
13600;DHT22;6871;51.34740610;4.31323160;2023-05-10T14:00:20;18.80;91.20
13600;DHT22;6871;51.34740610;4.31323160;2023-05-10T14:27:47;18.90;91.10
13600;DHT22;6871;51.34740610;4.31323160;2023-05-10T17:10:42;18.70;91.80
13600;DHT22;6871;51.34740610;4.31323160;2023-05-10T17:17:18;18.70;92.00
13600;DHT22;6871;51.34740610;4.31323160;2023-05-10T17:26:49;18.80;91.60
13600;DHT22;6871;51.34740610;4.31323160;2023-05-10T17:29:18;18.80;91.70
13600;DHT22;6871;51.34740610;4.31323160;2023-05-10T17:31:47;18.80;91.70
13600;DHT22;6871;51.34740610;4.31323160;2023-05-10T17:34:16;18.70;91.60
13600;DHT22;6871;51.34740610;4.31323160;2023-05-10T17:36:50;18.70;91.60
13600;DHT22;6871;51.34740610;4.31323160;2023-05-10T17:39:21;18.80;91.70
13600;DHT22;6871;51.34740610;4.31323160;2023-05-10T17:48:27;18.70;91.80
13600;DHT22;6871;51.34740610;4.31323160;2023-05-10T17:51:39;18.70;91.80
13600;DHT22;6871;51.34740610;4.31323160;2023-05-10T18:42:00;18.60;91.90
13600;DHT22;6871;51.34740610;4.31323160;2023-05-10T18:44:29;18.60;91.90
13600;DHT22;6871;51.34740610;4.31323160;2023-05-10T18:47:00;18.60;91.90
13600;DHT22;6871;51.34740610;4.31323160;2023-05-10T18:49:30;18.60;91.90
13600;DHT22;6871;51.34740610;4.31323160;2023-05-10T18:51:59;18.70;91.80
13600;DHT22;6871;51.34740610;4.31323160;2023-05-10T18:54:28;18.60;91.70
13600;DHT22;6871;51.34740610;4.31323160;2023-05-10T18:56:58;18.60;91.80
13600;DHT22;6871;51.34740610;4.31323160;2023-05-10T18:59:27;18.70;91.90
13600;DHT22;6871;51.34740610;4.31323160;2023-05-10T19:01:56;18.70;91.80
13600;DHT22;6871;51.34740610;4.31323160;2023-05-10T19:04:26;18.70;91.80
13600;DHT22;6871;51.34740610;4.31323160;2023-05-10T19:06:55;18.70;91.70
13600;DHT22;6871;51.34740610;4.31323160;2023-05-10T19:09:26;18.70;91.70
13600;DHT22;6871;51.34740610;4.31323160;2023-05-10T19:11:55;18.70;92.10
13600;DHT22;6871;51.34740610;4.31323160;2023-05-10T19:14:25;18.70;91.70
13600;DHT22;6871;51.34740610;4.31323160;2023-05-10T19:16:54;18.70;91.70
13600;DHT22;6871;51.34740610;4.31323160;2023-05-10T19:19:24;18.60;91.70
13600;DHT22;6871;51.34740610;4.31323160;2023-05-10T19:21:54;18.70;91.80
13600;DHT22;6871;51.34740610;4.31323160;2023-05-10T19:24:23;18.60;91.70
13600;DHT22;6871;51.34740610;4.31323160;2023-05-10T19:26:53;18.70;91.70
13600;DHT22;6871;51.34740610;4.31323160;2023-05-10T19:29:29;18.60;91.70
13600;DHT22;6871;51.34740610;4.31323160;2023-05-10T19:31:58;18.70;91.60
13600;DHT22;6871;51.34740610;4.31323160;2023-05-10T19:34:27;18.70;91.70
13600;DHT22;6871;51.34740610;4.31323160;2023-05-10T19:36:57;18.60;91.60
13600;DHT22;6871;51.34740610;4.31323160;2023-05-10T19:39:26;18.70;91.70
13600;DHT22;6871;51.34740610;4.31323160;2023-05-10T19:41:57;18.70;91.60
13600;DHT22;6871;51.34740610;4.31323160;2023-05-10T20:29:46;18.50;91.70
13600;DHT22;6871;51.34740610;4.31323160;2023-05-10T21:10:54;18.50;91.70
13600;DHT22;6871;51.34740610;4.31323160;2023-05-10T21:30:53;18.40;92.00
13600;DHT22;6871;51.34740610;4.31323160;2023-05-10T22:27:32;18.50;91.60
13600;DHT22;6871;51.34740610;4.31323160;2023-05-10T22:30:02;18.40;91.60
13600;DHT22;6871;51.34740610;4.31323160;2023-05-10T22:32:37;18.40;91.60
13600;DHT22;6871;51.34740610;4.31323160;2023-05-10T22:35:26;18.40;91.60
13600;DHT22;6871;51.34740610;4.31323160;2023-05-10T22:38:16;18.50;91.60
13600;DHT22;6871;51.34740610;4.31323160;2023-05-10T22:40:51;18.50;91.90
13600;DHT22;6871;51.34740610;4.31323160;2023-05-10T22:43:22;18.40;91.60
13600;DHT22;6871;51.34740610;4.31323160;2023-05-10T22:45:55;18.40;91.50
13600;DHT22;6871;51.34740610;4.31323160;2023-05-10T22:48:28;18.40;91.50
13600;DHT22;6871;51.34740610;4.31323160;2023-05-10T22:51:05;18.50;91.50
13600;DHT22;6871;51.34740610;4.31323160;2023-05-10T22:53:36;18.40;91.40
13600;DHT22;6871;51.34740610;4.31323160;2023-05-10T22:56:11;18.40;91.40
13600;DHT22;6871;51.34740610;4.31323160;2023-05-10T22:58:43;18.50;91.40
13600;DHT22;6871;51.34740610;4.31323160;2023-05-10T23:01:14;18.40;91.40
13600;DHT22;6871;51.34740610;4.31323160;2023-05-10T23:03:45;18.50;91.50
13600;DHT22;6871;51.34740610;4.31323160;2023-05-10T23:06:16;18.50;91.40
13600;DHT22;6871;51.34740610;4.31323160;2023-05-10T23:08:47;18.50;91.40
13600;DHT22;6871;51.34740610;4.31323160;2023-05-10T23:11:17;18.40;91.40
13600;DHT22;6871;51.34740610;4.31323160;2023-05-10T23:13:49;18.50;91.40
13600;DHT22;6871;51.34740610;4.31323160;2023-05-10T23:16:23;18.50;91.40
13600;DHT22;6871;51.34740610;4.31323160;2023-05-10T23:18:53;18.40;91.40
13600;DHT22;6871;51.34740610;4.31323160;2023-05-10T23:21:25;18.40;91.30
13600;DHT22;6871;51.34740610;4.31323160;2023-05-10T23:23:57;18.40;91.30
13600;DHT22;6871;51.34740610;4.31323160;2023-05-10T23:26:31;18.50;91.30
13600;DHT22;6871;51.34740610;4.31323160;2023-05-10T23:29:02;18.40;91.30
13600;DHT22;6871;51.34740610;4.31323160;2023-05-10T23:31:32;18.40;91.30
13600;DHT22;6871;51.34740610;4.31323160;2023-05-10T23:34:04;18.40;91.30
13600;DHT22;6871;51.34740610;4.31323160;2023-05-10T23:36:45;18.40;91.30
13600;DHT22;6871;51.34740610;4.31323160;2023-05-10T23:39:16;18.40;91.20
13600;DHT22;6871;51.34740610;4.31323160;2023-05-10T23:41:47;18.40;91.20
13600;DHT22;6871;51.34740610;4.31323160;2023-05-10T23:44:17;18.40;91.20
13600;DHT22;6871;51.34740610;4.31323160;2023-05-10T23:46:48;18.40;91.20
13600;DHT22;6871;51.34740610;4.31323160;2023-05-10T23:49:23;18.40;91.30
13600;DHT22;6871;51.34740610;4.31323160;2023-05-10T23:51:55;18.40;91.30
13600;DHT22;6871;51.34740610;4.31323160;2023-05-10T23:54:26;18.40;91.20
13600;DHT22;6871;51.34740610;4.31323160;2023-05-10T23:56:58;18.40;91.20
13600;DHT22;6871;51.34740610;4.31323160;2023-05-10T23:59:29;18.40;91.20
